CheckWX is a tool to help pilots better visualize weather data.  It is not intended as a substitute for an official pre-flight weather briefing.

03:16:40 UTC

UAAA TAF
Almaty Airport
Almaty, Kazakhstan
TAF UAAA 262300Z 2700/2724 34004MPS 9999 SCT050CB BKN100 TX25/2708Z TN11/2701Z TEMPO 2704/2714 26010G15MPS TSRA BKN030CB BKN100 BECMG 2714/2715 16003MPS TEMPO 2714/2722 20003MPS 5000 FU

May-27@
00:00 UTC

May-27 @ 00:00 UTC

May-27@
14:00 UTC

May-27 @ 14:00 UTC

TAF UAAA 262300Z 2700/2724 34004MPS 9999 SCT050CB BKN100 TX25/2708Z TN11/2701Z
Wind
  • 340° at 8 KTS
Cloud Levels
  • Scattered at 5,000' AGL
  • Broken at 10,000' AGL

May-27@
04:00 UTC

May-27 @ 04:00 UTC

May-27@
14:00 UTC

May-27 @ 14:00 UTC

TEMPO 2704/2714 26010G15MPS TSRA BKN030CB BKN100

Temporary

Temporary Changes expected for less than half the time period

Wind
  • 260° at 19 KTS
  • {Gusting to 29 KTS
Conditions
Thunderstorm, Rain
Cloud Levels
  • Broken at 3,000' AGL
  • Broken at 10,000' AGL

May-27@
14:00 UTC

May-27 @ 14:00 UTC

May-27@
22:00 UTC

May-27 @ 22:00 UTC

TEMPO 2714/2722 20003MPS 5000 FU

Temporary

Temporary Changes expected for less than half the time period

Wind
  • 200° at 6 KTS
Conditions
Smoke

May-27@
14:00 UTC

May-27 @ 14:00 UTC

May-28@
00:00 UTC

May-28 @ 00:00 UTC

BECMG 2714/2715 16003MPS

Becoming

Becoming Conditions expected by Mon, May 27, 2019 @ 15:00 UTC

Wind
  • 160° at 6 KTS
Cloud Levels
  • Scattered at 5,000' AGL
  • Broken at 10,000' AGL